createdAt,value
2019-02-28T00:01:39.763Z,47.43
2019-02-28T00:04:07.844Z,47.77
2019-02-28T00:06:35.756Z,52.47
2019-02-28T00:09:08.630Z,47.57
2019-02-28T00:11:39.531Z,45.67
2019-02-28T00:14:06.160Z,48.53
2019-02-28T00:16:35.620Z,49.60
2019-02-28T00:19:04.083Z,44.53
2019-02-28T00:21:32.313Z,46.07
2019-02-28T00:24:00.124Z,50.90
2019-02-28T00:26:27.985Z,44.77
2019-02-28T00:28:57.004Z,50.60
2019-02-28T00:31:25.651Z,54.57
2019-02-28T00:33:53.561Z,48.30
2019-02-28T00:36:21.419Z,41.27
2019-02-28T00:38:49.711Z,43.27
2019-02-28T00:41:17.465Z,50.30
2019-02-28T00:43:45.429Z,51.63
2019-02-28T00:46:13.260Z,50.10
2019-02-28T00:48:41.050Z,52.53
2019-02-28T00:51:08.920Z,50.50
2019-02-28T00:53:37.405Z,50.37
2019-02-28T00:56:05.884Z,46.60
2019-02-28T00:58:33.660Z,50.33
2019-02-28T01:01:01.496Z,43.27
2019-02-28T01:03:29.504Z,46.83
2019-02-28T01:05:57.342Z,50.53
2019-02-28T01:08:25.165Z,49.40
2019-02-28T01:10:52.911Z,45.90
2019-02-28T01:13:21.500Z,48.15
2019-02-28T01:15:49.245Z,41.60
2019-02-28T01:18:17.118Z,48.20
2019-02-28T01:20:49.970Z,44.70
2019-02-28T01:23:14.587Z,46.13
2019-02-28T01:25:42.419Z,46.80
2019-02-28T01:28:10.245Z,44.70
2019-02-28T01:30:40.569Z,44.90
2019-02-28T01:33:08.169Z,47.83
2019-02-28T01:35:37.516Z,49.43
2019-02-28T01:38:05.416Z,46.95
2019-02-28T01:40:35.154Z,43.40
2019-02-28T01:43:03.434Z,47.03
2019-02-28T01:45:31.115Z,45.93
2019-02-28T01:47:59.139Z,47.07
2019-02-28T01:50:29.618Z,46.90
2019-02-28T01:52:56.682Z,42.00
2019-02-28T01:55:24.468Z,41.90
2019-02-28T01:57:52.191Z,44.83
2019-02-28T02:00:19.980Z,50.35
2019-02-28T02:02:47.579Z,44.40
2019-02-28T02:05:16.912Z,41.35
2019-02-28T02:07:48.096Z,38.80
2019-02-28T02:10:21.221Z,41.43
2019-02-28T02:12:49.932Z,40.53
2019-02-28T02:15:18.049Z,46.03
2019-02-28T02:17:46.810Z,38.20
2019-02-28T02:20:15.346Z,42.00
2019-02-28T02:22:44.558Z,40.53
2019-02-28T02:25:13.601Z,43.40
2019-02-28T02:27:41.450Z,43.40
2019-02-28T02:30:15.047Z,42.35
2019-02-28T02:32:43.311Z,44.27
2019-02-28T02:35:11.208Z,44.80
2019-02-28T02:37:39.036Z,39.30
2019-02-28T02:40:08.225Z,41.95
2019-02-28T02:42:47.637Z,44.38
2019-02-28T02:45:10.583Z,42.13
2019-02-28T02:47:38.412Z,39.65
2019-02-28T02:50:08.204Z,44.63
2019-02-28T02:52:35.965Z,44.95
2019-02-28T02:55:04.234Z,41.15
2019-02-28T02:57:33.894Z,38.13
2019-02-28T03:00:01.796Z,38.80
2019-02-28T03:02:33.166Z,40.08
2019-02-28T03:04:59.521Z,38.45
2019-02-28T03:07:27.279Z,41.73
2019-02-28T03:10:02.160Z,39.75
2019-02-28T03:12:31.189Z,36.58
2019-02-28T03:15:00.516Z,35.17
2019-02-28T03:17:28.466Z,39.70
2019-02-28T03:19:56.337Z,37.03
2019-02-28T03:22:29.876Z,41.37
2019-02-28T03:24:54.611Z,42.62
2019-02-28T03:27:24.353Z,44.00
2019-02-28T03:29:52.158Z,45.15
2019-02-28T03:32:19.923Z,39.27
2019-02-28T03:34:55.363Z,36.13
2019-02-28T03:37:17.381Z,39.98
2019-02-28T03:39:45.122Z,36.73
2019-02-28T03:42:13.704Z,41.80
2019-02-28T03:44:41.873Z,36.42
2019-02-28T03:47:09.660Z,37.95
2019-02-28T03:49:37.499Z,39.83
2019-02-28T03:52:06.645Z,42.38
2019-02-28T03:54:35.246Z,39.08
2019-02-28T03:57:03.825Z,40.88
2019-02-28T03:59:31.775Z,41.75
2019-02-28T04:01:59.779Z,35.40
2019-02-28T04:04:27.897Z,37.75
2019-02-28T04:06:56.577Z,36.15
2019-02-28T04:09:24.323Z,38.75
2019-02-28T04:11:54.709Z,37.85
2019-02-28T04:14:22.631Z,35.92
2019-02-28T04:16:54.070Z,34.08
2019-02-28T04:19:22.579Z,38.40
2019-02-28T04:21:50.104Z,38.13
2019-02-28T04:24:17.970Z,40.03
2019-02-28T04:26:45.866Z,35.83
2019-02-28T04:29:13.614Z,32.03
2019-02-28T04:31:41.609Z,32.58
2019-02-28T04:34:12.956Z,33.73
2019-02-28T04:36:39.071Z,29.63
2019-02-28T04:39:07.174Z,31.35
2019-02-28T04:41:34.944Z,30.08
2019-02-28T04:44:02.955Z,33.35
2019-02-28T04:46:32.571Z,28.92
2019-02-28T04:49:00.320Z,27.55
2019-02-28T04:51:28.223Z,27.62
2019-02-28T04:53:55.954Z,27.55
2019-02-28T04:56:23.731Z,32.60
2019-02-28T04:58:51.554Z,31.87
2019-02-28T05:01:19.368Z,34.73
2019-02-28T05:03:47.110Z,33.95
2019-02-28T05:06:14.990Z,32.25
2019-02-28T05:08:42.705Z,29.70
2019-02-28T05:11:10.614Z,32.17
2019-02-28T05:13:38.333Z,28.40
2019-02-28T05:16:09.315Z,32.60
2019-02-28T05:18:37.078Z,30.85
2019-02-28T05:21:05.023Z,30.52
2019-02-28T05:23:35.794Z,31.30
2019-02-28T05:26:02.558Z,28.98
2019-02-28T05:28:30.367Z,26.75
2019-02-28T05:30:58.113Z,28.00
2019-02-28T05:33:25.902Z,31.52
2019-02-28T05:35:53.712Z,26.40
2019-02-28T05:38:22.553Z,28.45
2019-02-28T05:40:50.843Z,26.23
2019-02-28T05:43:18.648Z,28.25
2019-02-28T05:45:56.594Z,26.80
2019-02-28T05:48:24.625Z,24.00
2019-02-28T05:50:53.358Z,21.60
2019-02-28T05:53:22.035Z,23.70
2019-02-28T05:55:49.789Z,24.67
2019-02-28T05:58:18.440Z,23.30
2019-02-28T06:00:46.742Z,18.87
2019-02-28T06:03:14.749Z,17.82
2019-02-28T06:05:46.367Z,20.10
2019-02-28T06:08:13.603Z,22.40
2019-02-28T06:10:41.317Z,17.85
2019-02-28T06:13:09.639Z,14.35
2019-02-28T06:15:37.941Z,21.48
2019-02-28T06:18:05.995Z,17.60
2019-02-28T06:20:34.022Z,16.82
2019-02-28T06:23:01.955Z,27.67
2019-02-28T06:25:29.837Z,15.25
2019-02-28T06:27:57.688Z,16.95
2019-02-28T06:30:27.702Z,20.45
2019-02-28T06:32:59.203Z,20.32
2019-02-28T06:35:25.485Z,17.80
2019-02-28T06:37:53.404Z,22.00
2019-02-28T06:40:21.160Z,17.32
2019-02-28T06:42:48.980Z,14.85
2019-02-28T06:45:17.003Z,15.20
2019-02-28T06:47:49.511Z,16.52
2019-02-28T06:50:17.289Z,18.48
2019-02-28T06:52:45.307Z,16.85
2019-02-28T06:55:17.404Z,13.78
2019-02-28T06:57:45.421Z,17.57
2019-02-28T07:00:14.216Z,12.80
2019-02-28T07:02:42.397Z,11.63
2019-02-28T07:05:10.354Z,12.40
2019-02-28T07:07:38.170Z,12.40
2019-02-28T07:10:09.697Z,16.07
2019-02-28T07:12:36.759Z,16.07
2019-02-28T07:15:05.256Z,11.73
2019-02-28T07:17:33.362Z,16.00
2019-02-28T07:20:02.044Z,11.53
2019-02-28T07:22:31.038Z,14.70
2019-02-28T07:24:58.894Z,12.18
2019-02-28T07:27:29.744Z,14.55
2019-02-28T07:29:56.885Z,12.63
2019-02-28T07:32:26.147Z,13.30
2019-02-28T07:34:55.038Z,11.23
2019-02-28T07:37:24.340Z,11.73
2019-02-28T07:39:52.725Z,13.27
2019-02-28T07:42:20.586Z,14.90
2019-02-28T07:44:48.524Z,13.78
2019-02-28T07:47:17.534Z,12.00
2019-02-28T07:49:46.404Z,11.00
2019-02-28T07:52:14.250Z,12.88
2019-02-28T07:54:42.074Z,16.10
2019-02-28T07:57:09.875Z,14.13
2019-02-28T07:59:42.435Z,13.17
2019-02-28T08:02:07.598Z,14.83
2019-02-28T08:04:35.620Z,15.23
2019-02-28T08:07:03.591Z,14.23
2019-02-28T08:09:31.602Z,14.27
2019-02-28T08:11:59.588Z,20.67
2019-02-28T08:14:27.389Z,16.27
2019-02-28T08:16:55.151Z,19.77
2019-02-28T08:19:26.856Z,22.07
2019-02-28T08:21:52.758Z,18.33
2019-02-28T08:24:20.795Z,18.90
2019-02-28T08:26:50.711Z,18.53
2019-02-28T08:29:18.508Z,17.93
2019-02-28T08:31:46.373Z,20.07
2019-02-28T08:34:14.388Z,17.60
2019-02-28T08:36:43.902Z,30.13
2019-02-28T08:39:16.421Z,19.57
2019-02-28T08:41:44.506Z,31.23
2019-02-28T08:44:12.302Z,24.97
2019-02-28T08:46:40.119Z,23.63
2019-02-28T08:49:08.913Z,23.10
2019-02-28T08:51:37.173Z,29.60
2019-02-28T08:54:06.117Z,26.10
2019-02-28T08:56:34.249Z,30.03
2019-02-28T08:59:11.390Z,27.53
2019-02-28T09:01:31.665Z,23.53
2019-02-28T09:04:04.985Z,28.13
2019-02-28T09:06:29.858Z,29.57
2019-02-28T09:08:59.885Z,30.90
2019-02-28T09:11:28.385Z,32.57
2019-02-28T09:13:56.298Z,34.87
2019-02-28T09:16:24.255Z,31.33
2019-02-28T09:18:52.177Z,31.10
2019-02-28T09:21:20.573Z,32.30
2019-02-28T09:23:48.476Z,30.47
2019-02-28T09:26:16.400Z,31.27
2019-02-28T09:28:44.358Z,30.43
2019-02-28T09:31:13.954Z,33.70
2019-02-28T09:33:41.780Z,30.43
2019-02-28T09:36:09.679Z,32.20
2019-02-28T09:38:37.571Z,31.60
2019-02-28T09:41:05.579Z,32.43
2019-02-28T09:43:33.324Z,34.67
2019-02-28T09:46:01.272Z,37.47
2019-02-28T09:48:30.636Z,30.33
2019-02-28T09:50:59.178Z,37.10
2019-02-28T09:53:27.177Z,31.07
2019-02-28T09:55:55.797Z,29.00
2019-02-28T09:58:26.208Z,30.47
2019-02-28T10:00:53.451Z,30.47
2019-02-28T10:03:21.211Z,30.80
2019-02-28T10:05:49.111Z,30.27
2019-02-28T10:08:16.851Z,31.30
2019-02-28T10:10:44.693Z,31.30
2019-02-28T10:13:14.548Z,33.27
2019-02-28T10:15:42.473Z,31.97
2019-02-28T10:18:11.188Z,28.43
2019-02-28T10:20:39.103Z,32.20
2019-02-28T10:23:07.081Z,30.77
2019-02-28T10:25:45.210Z,32.83
2019-02-28T10:28:13.720Z,27.50
2019-02-28T10:30:41.646Z,28.90
2019-02-28T10:33:09.498Z,25.57
2019-02-28T10:35:38.984Z,29.83
2019-02-28T10:38:06.926Z,25.20
2019-02-28T10:40:34.942Z,26.57
2019-02-28T10:43:03.268Z,25.73
2019-02-28T10:45:31.086Z,29.30
2019-02-28T10:48:02.855Z,28.90
2019-02-28T10:50:31.945Z,25.63
2019-02-28T10:53:04.073Z,25.87
2019-02-28T10:55:28.288Z,29.27
2019-02-28T10:57:56.143Z,26.13
2019-02-28T11:00:29.415Z,28.27
2019-02-28T11:02:57.927Z,24.07
2019-02-28T11:05:30.709Z,26.63
2019-02-28T11:07:59.190Z,23.93
2019-02-28T11:10:36.311Z,22.20
2019-02-28T11:13:06.565Z,24.73
2019-02-28T11:15:34.582Z,24.17
2019-02-28T11:18:08.465Z,22.63
2019-02-28T11:20:34.547Z,22.70
2019-02-28T11:23:02.777Z,19.73
2019-02-28T11:25:34.588Z,19.60
2019-02-28T11:28:02.104Z,22.93
2019-02-28T11:30:30.741Z,19.77
2019-02-28T11:33:03.255Z,21.53
2019-02-28T11:35:29.536Z,21.23
2019-02-28T11:37:57.518Z,20.77
2019-02-28T11:40:27.673Z,20.70
2019-02-28T11:42:55.677Z,21.43
2019-02-28T11:45:25.557Z,21.93
2019-02-28T11:47:55.071Z,23.37
2019-02-28T11:50:23.013Z,21.20
2019-02-28T11:52:51.231Z,22.30
2019-02-28T11:55:20.408Z,23.20
2019-02-28T11:57:49.074Z,22.93
2019-02-28T12:00:19.988Z,21.07
2019-02-28T12:02:53.253Z,22.50
2019-02-28T12:05:17.882Z,22.80
2019-02-28T12:07:45.699Z,20.57
2019-02-28T12:10:13.648Z,22.27
2019-02-28T12:12:44.394Z,22.33
2019-02-28T12:15:13.055Z,21.17
2019-02-28T12:17:40.933Z,23.37
2019-02-28T12:20:10.343Z,23.00
2019-02-28T12:22:38.257Z,19.50
2019-02-28T12:25:07.560Z,20.80
2019-02-28T12:27:36.285Z,22.70
2019-02-28T12:30:05.209Z,17.30
2019-02-28T12:32:33.004Z,18.23
2019-02-28T12:35:02.429Z,18.37
2019-02-28T12:37:30.511Z,18.50
2019-02-28T12:39:59.890Z,17.43
2019-02-28T12:42:28.149Z,15.27
2019-02-28T12:44:56.016Z,17.60
2019-02-28T12:47:25.794Z,16.00
2019-02-28T12:49:54.356Z,17.97
2019-02-28T12:52:23.288Z,17.10
2019-02-28T12:54:51.267Z,20.50
2019-02-28T12:57:22.312Z,18.47
2019-02-28T12:59:49.098Z,20.73
2019-02-28T13:02:16.900Z,16.37
2019-02-28T13:04:44.663Z,19.67
2019-02-28T13:07:12.790Z,17.70
2019-02-28T13:09:41.371Z,17.43
2019-02-28T13:12:11.929Z,18.47
2019-02-28T13:14:40.720Z,17.40
2019-02-28T13:17:09.258Z,17.67
2019-02-28T13:19:37.354Z,18.37
2019-02-28T13:22:05.366Z,18.07
2019-02-28T13:24:33.206Z,18.87
2019-02-28T13:27:01.101Z,15.77
2019-02-28T13:29:32.477Z,18.13
2019-02-28T13:32:10.596Z,19.20
2019-02-28T13:34:38.497Z,21.67
2019-02-28T13:37:06.386Z,22.27
2019-02-28T13:39:34.251Z,19.70
2019-02-28T13:42:03.229Z,21.23
2019-02-28T13:44:36.551Z,20.33
2019-02-28T13:47:09.444Z,17.60
2019-02-28T13:49:32.103Z,22.37
2019-02-28T13:51:59.993Z,18.33
2019-02-28T13:54:28.907Z,21.47
2019-02-28T13:56:56.840Z,24.07
2019-02-28T13:59:24.656Z,18.40
2019-02-28T14:01:55.607Z,22.47
2019-02-28T14:04:25.955Z,21.50
2019-02-28T14:06:52.549Z,20.17
2019-02-28T14:09:23.085Z,20.40
2019-02-28T14:11:51.959Z,18.87
2019-02-28T14:14:19.859Z,17.00
2019-02-28T14:16:47.623Z,19.97
2019-02-28T14:19:16.782Z,19.00
2019-02-28T14:21:46.044Z,19.60
2019-02-28T14:24:13.839Z,20.33
2019-02-28T14:26:42.974Z,20.30
2019-02-28T14:29:11.729Z,21.13
2019-02-28T14:31:39.783Z,17.10
2019-02-28T14:34:08.023Z,23.33
2019-02-28T14:36:35.770Z,21.37
2019-02-28T14:39:08.270Z,21.50
2019-02-28T14:41:36.158Z,19.70
2019-02-28T14:44:04.079Z,23.57
2019-02-28T14:46:32.167Z,19.33
2019-02-28T14:49:00.031Z,20.70
2019-02-28T14:51:28.586Z,23.43
2019-02-28T14:53:57.297Z,19.23
2019-02-28T14:56:25.068Z,21.63
2019-02-28T14:58:54.494Z,18.73
2019-02-28T15:01:22.720Z,21.57
2019-02-28T15:03:51.146Z,14.30
2019-02-28T15:06:20.386Z,19.63
2019-02-28T15:08:50.994Z,19.33
2019-02-28T15:11:18.285Z,20.57
2019-02-28T15:13:46.338Z,17.23
2019-02-28T15:16:14.160Z,21.90
2019-02-28T15:18:44.350Z,19.13
2019-02-28T15:21:11.697Z,17.10
2019-02-28T15:23:39.653Z,23.90
2019-02-28T15:26:07.580Z,22.73
2019-02-28T15:28:35.406Z,26.80
2019-02-28T15:31:05.734Z,23.70
2019-02-28T15:33:33.709Z,25.13
2019-02-28T15:36:01.667Z,24.57
2019-02-28T15:38:29.609Z,22.00
2019-02-28T15:40:58.848Z,54.23
2019-02-28T15:43:27.167Z,28.87
2019-02-28T15:45:55.519Z,28.07
2019-02-28T15:48:23.409Z,41.07
2019-02-28T15:50:52.569Z,36.67
2019-02-28T15:53:20.650Z,23.63
2019-02-28T15:55:48.544Z,30.73
2019-02-28T15:58:16.735Z,204.90
2019-02-28T16:00:45.379Z,1021.27
2019-02-28T16:03:16.194Z,236.17
2019-02-28T16:05:44.242Z,78.40
2019-02-28T16:08:12.297Z,29.33
2019-02-28T16:10:40.300Z,25.20
2019-02-28T16:13:08.072Z,23.70
2019-02-28T16:15:35.996Z,602.23
2019-02-28T16:18:04.306Z,649.10
2019-02-28T16:20:32.885Z,106.50
2019-02-28T16:23:01.272Z,41.73
2019-02-28T16:25:31.163Z,266.77
2019-02-28T16:27:59.179Z,327.87
2019-02-28T16:30:28.834Z,46.63
2019-02-28T16:32:56.927Z,26.50
2019-02-28T16:35:24.822Z,30.63
2019-02-28T16:37:52.666Z,131.53
2019-02-28T16:40:26.205Z,536.10
2019-02-28T16:42:50.614Z,370.03
2019-02-28T16:45:37.597Z,141.93
2019-02-28T16:48:07.658Z,30.80
2019-02-28T16:50:35.832Z,31.83
2019-02-28T16:53:04.216Z,29.07
2019-02-28T16:55:32.234Z,39.70
2019-02-28T16:58:00.063Z,379.33
2019-02-28T17:00:28.119Z,134.87
2019-02-28T17:02:56.076Z,141.57
2019-02-28T17:05:27.994Z,43.10
2019-02-28T17:07:53.916Z,32.93
2019-02-28T17:10:30.522Z,26.90
2019-02-28T17:13:07.864Z,27.97
2019-02-28T17:15:55.835Z,34.23
2019-02-28T17:18:24.023Z,31.23
2019-02-28T17:20:52.023Z,31.13
2019-02-28T17:23:19.891Z,30.87
2019-02-28T17:25:47.898Z,29.77
2019-02-28T17:28:24.071Z,33.70
2019-02-28T17:31:11.542Z,38.50
2019-02-28T17:33:43.332Z,39.20
2019-02-28T17:36:11.733Z,42.60
2019-02-28T17:38:40.106Z,37.33
2019-02-28T17:41:08.020Z,38.40
2019-02-28T17:43:38.013Z,38.67
2019-02-28T17:46:06.883Z,32.97
2019-02-28T17:49:23.313Z,41.47
2019-02-28T17:52:19.773Z,36.60
2019-02-28T17:55:32.093Z,42.13
2019-02-28T17:58:32.665Z,37.90
2019-02-28T18:01:34.544Z,34.63
2019-02-28T18:04:37.673Z,38.13
2019-02-28T18:07:45.319Z,36.57
2019-02-28T18:10:51.479Z,34.00
2019-02-28T18:14:07.511Z,37.97
2019-02-28T18:17:16.623Z,42.43
2019-02-28T18:20:07.733Z,38.47
2019-02-28T18:23:10.022Z,103.00
2019-02-28T18:26:01.275Z,37.03
2019-02-28T18:29:10.490Z,37.40
2019-02-28T18:31:38.515Z,40.27
2019-02-28T18:34:09.366Z,40.67
2019-02-28T18:36:40.202Z,39.13
2019-02-28T18:39:11.433Z,39.33
2019-02-28T18:41:38.886Z,43.77
2019-02-28T18:44:08.324Z,37.63
2019-02-28T18:46:36.692Z,37.70
2019-02-28T18:49:04.788Z,38.30
2019-02-28T18:51:32.737Z,35.73
2019-02-28T18:54:01.183Z,43.57
2019-02-28T18:56:29.031Z,35.90
2019-02-28T18:58:57.821Z,39.50
2019-02-28T19:01:25.666Z,38.33
2019-02-28T19:03:53.465Z,37.53
2019-02-28T19:06:21.438Z,34.40
2019-02-28T19:08:49.254Z,36.33
2019-02-28T19:11:17.029Z,36.83
2019-02-28T19:13:46.747Z,37.80
2019-02-28T19:16:15.285Z,41.23
2019-02-28T19:18:43.332Z,36.17
2019-02-28T19:21:11.081Z,53.80
2019-02-28T19:23:38.995Z,52.00
2019-02-28T19:26:07.627Z,50.00
2019-02-28T19:28:35.475Z,46.13
2019-02-28T19:31:03.450Z,41.73
2019-02-28T19:33:31.471Z,43.53
2019-02-28T19:35:59.341Z,41.47
2019-02-28T19:38:27.132Z,39.20
2019-02-28T19:40:54.963Z,40.33
2019-02-28T19:43:23.325Z,42.03
2019-02-28T19:45:52.176Z,42.80
2019-02-28T19:48:20.045Z,39.97
2019-02-28T19:50:48.026Z,45.33
2019-02-28T19:53:15.825Z,44.50
2019-02-28T19:55:43.654Z,40.33
2019-02-28T19:58:11.408Z,44.83
2019-02-28T20:00:39.525Z,49.53
2019-02-28T20:03:07.370Z,42.23
2019-02-28T20:05:35.496Z,42.87
2019-02-28T20:08:03.491Z,41.73
2019-02-28T20:10:31.487Z,40.63
2019-02-28T20:12:59.385Z,41.03
2019-02-28T20:15:30.120Z,41.27
2019-02-28T20:17:58.410Z,40.57
2019-02-28T20:20:27.191Z,43.63
2019-02-28T20:22:55.154Z,44.30
2019-02-28T20:25:23.230Z,48.17
2019-02-28T20:27:51.391Z,43.07
2019-02-28T20:30:20.937Z,42.20
2019-02-28T20:32:48.988Z,43.00
2019-02-28T20:35:26.102Z,45.37
2019-02-28T20:37:47.475Z,43.87
2019-02-28T20:40:15.928Z,42.00
2019-02-28T20:42:43.790Z,45.37
2019-02-28T20:45:11.919Z,40.20
2019-02-28T20:47:39.803Z,46.77
2019-02-28T20:50:13.891Z,53.20
2019-02-28T20:52:41.664Z,65.57
2019-02-28T20:55:09.690Z,58.43
2019-02-28T20:57:38.140Z,72.83
2019-02-28T21:00:09.269Z,66.57
2019-02-28T21:02:37.052Z,72.10
2019-02-28T21:05:05.293Z,65.30
2019-02-28T21:07:33.064Z,60.63
2019-02-28T21:10:01.184Z,534.00
2019-02-28T21:12:29.053Z,855.80
2019-02-28T21:14:57.058Z,570.80
2019-02-28T21:17:29.416Z,541.53
2019-02-28T21:19:54.515Z,293.97
2019-02-28T21:22:22.474Z,97.70
2019-02-28T21:24:50.306Z,84.60
2019-02-28T21:27:18.210Z,78.87
2019-02-28T21:29:46.046Z,83.83
2019-02-28T21:32:13.985Z,73.73
2019-02-28T21:34:42.154Z,82.87
2019-02-28T21:37:10.189Z,112.03
2019-02-28T21:39:38.082Z,110.80
2019-02-28T21:42:06.908Z,150.57
2019-02-28T21:44:34.651Z,144.57
2019-02-28T21:47:02.788Z,98.50
2019-02-28T21:49:31.521Z,114.27
2019-02-28T21:51:59.691Z,98.03
2019-02-28T21:54:28.504Z,94.60
2019-02-28T21:56:56.413Z,90.37
2019-02-28T21:59:24.339Z,85.87
2019-02-28T22:01:52.296Z,81.90
2019-02-28T22:04:20.217Z,76.70
2019-02-28T22:06:48.054Z,84.27
2019-02-28T22:09:16.079Z,81.70
2019-02-28T22:11:46.125Z,84.33
2019-02-28T22:14:14.852Z,79.63
2019-02-28T22:16:42.658Z,82.33
2019-02-28T22:19:10.457Z,77.33
2019-02-28T22:21:38.390Z,74.70
2019-02-28T22:24:06.149Z,74.30
2019-02-28T22:26:34.176Z,75.73
2019-02-28T22:29:02.086Z,70.60
2019-02-28T22:32:01.405Z,70.50
2019-02-28T22:34:40.380Z,74.80
2019-02-28T22:37:08.303Z,79.50
2019-02-28T22:39:36.238Z,69.53
2019-02-28T22:42:04.410Z,70.87
2019-02-28T22:44:32.502Z,74.47
2019-02-28T22:47:00.396Z,77.07
2019-02-28T22:49:28.349Z,75.00
2019-02-28T22:51:56.322Z,75.30
2019-02-28T22:54:24.094Z,76.87
2019-02-28T22:56:52.005Z,74.67
2019-02-28T22:59:20.256Z,74.23
2019-02-28T23:01:48.897Z,74.37
2019-02-28T23:04:16.750Z,73.37
2019-02-28T23:06:44.595Z,80.23
2019-02-28T23:09:12.835Z,78.40
2019-02-28T23:11:40.879Z,75.73
2019-02-28T23:14:08.861Z,81.33
2019-02-28T23:16:36.805Z,81.03
2019-02-28T23:19:04.787Z,79.50
2019-02-28T23:21:32.667Z,82.03
2019-02-28T23:24:00.583Z,84.43
2019-02-28T23:26:29.524Z,82.73
2019-02-28T23:29:16.198Z,76.37
2019-02-28T23:32:35.841Z,84.00
2019-02-28T23:35:04.819Z,77.37
2019-02-28T23:37:32.649Z,81.17
2019-02-28T23:40:00.424Z,80.27
2019-02-28T23:42:28.345Z,83.73
2019-02-28T23:44:56.087Z,77.50
2019-02-28T23:47:23.934Z,79.67
2019-02-28T23:49:52.289Z,78.17
2019-02-28T23:52:20.214Z,79.10
2019-02-28T23:54:50.368Z,82.37
2019-02-28T23:57:18.221Z,73.23
2019-02-28T23:59:46.061Z,80.00
